Startpagina
METAR-TAF:

METAR-TAF

Vliegvelden :

Lichinga, Mozambique

breedte: 13-18S, lengte: 035-14E, hoogte: 1364 m

Actueel weer

Dit bericht is 1 uur en het 19 minuten geleden gemaakt, om 02:00 UTC
Wind 8 kt uit het zuidzuidoosten
Temperatuur 10°C
Vochtigheid 93%
Druk 1026 hPa
Zicht 10 km of meer
geen wolken onder 1500 m en geen cumulonimbus

METAR: FQLC 130200Z 15008KT CAVOK 10/09 Q1026

Tijdstip: 05:19 (03:19 UTC)

Verwachting

Dit bericht is 11 uur en het 19 minuten geleden gemaakt, om 16:00 UTC
Verwachting geldig van 12 om 18 UTC tot 13 om 18 UTC
Wind 7 kt uit het zuidzuidoosten
Zicht 10 km of meer
Weinig wolken op 2000 ft

TAF: FQLC 121600Z 1218/1318 16007KT 9999 FEW020 TX19/1313Z TN10/1302Z

Waarnemingen en weersverwachtingen van meer dan 4000 vliegvelden (METAR en TAF).

De beschikbare stations zijn de gele en rode punten op de kaart.

Ga met uw muis naar het station om de naam te zien.

Klik dan om waarnemingen en weersverwachtingen te zien.

kaart wijzigen: klik op de groene knoppen met een zwart kruis om in te zoomen, op de groene knop met een streepje om uit te zoomen of op de groene pijlen voor aangrenzende kaarten.


METAR-TAF: